createdAt,value
2023-03-24T00:00:43.544Z,7.93
2023-03-24T00:03:13.215Z,7.75
2023-03-24T00:05:43.766Z,8.63
2023-03-24T00:08:13.169Z,7.63
2023-03-24T00:10:42.922Z,8.90
2023-03-24T00:13:16.171Z,7.35
2023-03-24T00:15:48.479Z,8.50
2023-03-24T00:18:25.784Z,7.25
2023-03-24T00:20:58.382Z,8.50
2023-03-24T00:23:32.086Z,8.32
2023-03-24T00:26:03.966Z,8.00
2023-03-24T00:28:42.502Z,7.50
2023-03-24T00:31:14.347Z,7.60
2023-03-24T00:36:19.242Z,8.15
2023-03-24T00:39:00.119Z,8.30
2023-03-24T00:41:30.111Z,7.55
2023-03-24T00:44:03.450Z,7.93
2023-03-24T00:46:33.731Z,7.65
2023-03-24T00:49:11.965Z,8.38
2023-03-24T00:51:43.428Z,7.68
2023-03-24T00:54:16.010Z,8.32
2023-03-24T00:56:49.251Z,8.45
2023-03-24T00:59:21.087Z,8.10
2023-03-24T01:01:50.529Z,8.20
2023-03-24T01:04:20.330Z,7.72
2023-03-24T01:06:57.953Z,7.63
2023-03-24T01:09:27.645Z,7.80
2023-03-24T01:12:02.084Z,8.23
2023-03-24T01:14:34.685Z,7.60
2023-03-24T01:17:06.160Z,7.85
2023-03-24T01:19:36.036Z,7.60
2023-03-24T01:22:05.422Z,8.23
2023-03-24T01:24:34.929Z,8.20
2023-03-24T01:27:04.281Z,8.65
2023-03-24T01:29:35.682Z,7.45
2023-03-24T01:32:05.272Z,8.38
2023-03-24T01:34:34.668Z,8.13
2023-03-24T01:37:04.644Z,8.30
2023-03-24T01:39:39.038Z,7.97
2023-03-24T01:42:19.694Z,8.02
2023-03-24T01:44:53.004Z,7.47
2023-03-24T01:47:35.105Z,8.30
2023-03-24T01:50:06.353Z,7.90
2023-03-24T01:52:38.867Z,8.07
2023-03-24T01:55:13.779Z,7.78
2023-03-24T01:57:46.383Z,8.48
2023-03-24T02:00:24.807Z,8.30
2023-03-24T02:03:20.630Z,8.43
2023-03-24T02:05:57.485Z,8.02
2023-03-24T02:08:33.627Z,8.88
2023-03-24T02:11:09.141Z,9.38
2023-03-24T02:13:53.320Z,8.52
2023-03-24T02:16:40.733Z,9.10
2023-03-24T02:19:40.458Z,8.40
2023-03-24T02:22:49.731Z,8.63
2023-03-24T02:28:45.738Z,8.98
2023-03-24T02:31:35.623Z,8.73
2023-03-24T02:34:40.717Z,8.43
2023-03-24T02:37:34.468Z,9.48
2023-03-24T02:40:28.590Z,8.57
2023-03-24T02:43:25.693Z,9.40
2023-03-24T02:46:13.122Z,9.38
2023-03-24T02:49:11.538Z,9.52
2023-03-24T02:51:49.485Z,9.40
2023-03-24T02:54:28.306Z,9.55
2023-03-24T02:57:06.802Z,9.00
2023-03-24T03:00:02.507Z,8.82
2023-03-24T03:03:08.576Z,9.80
2023-03-24T03:05:43.315Z,9.80
2023-03-24T03:08:16.974Z,10.13
2023-03-24T03:10:55.490Z,9.55
2023-03-24T03:13:32.288Z,10.27
2023-03-24T03:16:07.907Z,10.43
2023-03-24T03:18:43.720Z,10.32
2023-03-24T03:23:56.196Z,10.10
2023-03-24T03:26:32.290Z,10.60
2023-03-24T03:29:08.937Z,10.60
2023-03-24T03:31:42.339Z,10.88
2023-03-24T03:34:19.843Z,10.80
2023-03-24T03:36:52.842Z,10.38
2023-03-24T03:39:29.674Z,10.00
2023-03-24T03:44:44.544Z,10.85
2023-03-24T03:47:14.864Z,11.02
2023-03-24T03:49:48.024Z,10.77
2023-03-24T03:52:18.618Z,11.50
2023-03-24T03:54:51.631Z,11.07
2023-03-24T03:57:22.401Z,10.52
2023-03-24T04:00:23.503Z,10.80
2023-03-24T04:03:30.059Z,10.75
2023-03-24T04:06:03.841Z,10.68
2023-03-24T04:08:52.670Z,11.15
2023-03-24T04:11:38.156Z,11.35
2023-03-24T04:14:56.218Z,11.48
2023-03-24T04:17:46.393Z,10.73
2023-03-24T04:20:28.702Z,10.80
2023-03-24T04:23:16.226Z,11.25
2023-03-24T04:25:56.386Z,11.35
2023-03-24T04:28:31.467Z,10.38
2023-03-24T04:33:58.200Z,10.77
2023-03-24T04:36:34.512Z,11.70
2023-03-24T04:39:31.468Z,11.95
2023-03-24T04:42:07.992Z,11.70
2023-03-24T04:44:37.992Z,11.88
2023-03-24T04:47:50.563Z,11.88
2023-03-24T04:50:43.254Z,12.40
2023-03-24T04:53:22.559Z,12.65
2023-03-24T04:56:10.098Z,12.25
2023-03-24T04:59:00.904Z,12.55
2023-03-24T05:01:31.282Z,12.02
2023-03-24T05:04:30.596Z,12.35
2023-03-24T05:07:13.348Z,10.98
2023-03-24T05:09:42.641Z,12.93
2023-03-24T05:12:12.645Z,12.40
2023-03-24T05:14:48.409Z,12.30
2023-03-24T05:17:18.645Z,12.75
2023-03-24T05:19:48.141Z,13.10
2023-03-24T05:22:19.251Z,13.60
2023-03-24T05:24:48.649Z,13.57
2023-03-24T05:27:18.017Z,13.60
2023-03-24T05:29:52.787Z,13.40
2023-03-24T05:32:27.041Z,13.68
2023-03-24T05:35:06.440Z,13.90
2023-03-24T05:37:38.295Z,14.45
2023-03-24T05:40:14.621Z,14.48
2023-03-24T05:42:59.416Z,13.25
2023-03-24T05:45:33.482Z,14.35
2023-03-24T05:48:05.620Z,14.52
2023-03-24T05:51:00.313Z,14.77
2023-03-24T05:53:32.892Z,15.38
2023-03-24T05:56:27.671Z,15.68
2023-03-24T05:59:19.668Z,14.93
2023-03-24T06:02:01.559Z,13.93
2023-03-24T06:04:53.615Z,15.18
2023-03-24T06:07:30.475Z,14.68
2023-03-24T06:10:09.994Z,14.57
2023-03-24T06:12:46.808Z,15.40
2023-03-24T06:15:28.280Z,14.57
2023-03-24T06:18:12.576Z,15.07
2023-03-24T06:20:42.061Z,14.35
2023-03-24T06:23:15.126Z,14.63
2023-03-24T06:28:51.590Z,14.60
2023-03-24T06:31:21.213Z,14.63
2023-03-24T06:33:58.611Z,13.68
2023-03-24T06:36:28.033Z,14.60
2023-03-24T06:39:05.473Z,15.23
2023-03-24T06:41:37.234Z,15.23
2023-03-24T06:44:07.213Z,14.48
2023-03-24T06:46:42.303Z,14.05
2023-03-24T06:49:12.199Z,13.48
2023-03-24T06:51:41.540Z,13.57
2023-03-24T06:54:18.453Z,13.40
2023-03-24T06:56:49.943Z,12.65
2023-03-24T06:59:23.526Z,12.43
2023-03-24T07:01:59.445Z,12.93
2023-03-24T07:08:10.258Z,11.80
2023-03-24T07:10:51.304Z,12.23
2023-03-24T07:13:22.596Z,11.55
2023-03-24T07:15:59.375Z,10.40
2023-03-24T07:18:28.796Z,9.43
2023-03-24T07:21:02.762Z,10.20
2023-03-24T07:23:37.824Z,10.43
2023-03-24T07:26:35.484Z,7.50
2023-03-24T07:29:16.696Z,10.20
2023-03-24T07:32:15.220Z,10.20
2023-03-24T07:34:51.002Z,10.27
2023-03-24T07:37:20.363Z,10.65
2023-03-24T07:39:49.603Z,10.10
2023-03-24T07:42:19.020Z,10.20
2023-03-24T07:45:11.454Z,10.15
2023-03-24T07:47:41.652Z,9.77
2023-03-24T07:50:17.476Z,9.05
2023-03-24T07:52:50.594Z,8.65
2023-03-24T07:55:25.846Z,9.95
2023-03-24T07:58:11.270Z,6.95
2023-03-24T08:00:47.795Z,7.72
2023-03-24T08:06:20.028Z,8.82
2023-03-24T08:09:00.474Z,9.27
2023-03-24T08:11:30.197Z,8.00
2023-03-24T08:13:59.765Z,9.43
2023-03-24T08:16:31.417Z,9.75
2023-03-24T08:19:07.330Z,9.40
2023-03-24T08:21:36.790Z,7.00
2023-03-24T08:24:06.491Z,9.55
2023-03-24T08:26:36.061Z,8.18
2023-03-24T08:29:05.718Z,9.07
2023-03-24T08:31:38.041Z,9.65
2023-03-24T08:34:13.484Z,8.43
2023-03-24T08:36:47.824Z,9.57
2023-03-24T08:39:17.401Z,8.38
2023-03-24T08:41:47.060Z,8.13
2023-03-24T08:44:16.366Z,7.47
2023-03-24T08:46:47.878Z,7.95
2023-03-24T08:49:17.374Z,7.47
2023-03-24T08:51:46.753Z,7.75
2023-03-24T08:54:23.254Z,6.57
2023-03-24T08:56:52.733Z,6.30
2023-03-24T08:59:21.921Z,6.53
2023-03-24T09:01:53.079Z,6.10
2023-03-24T09:04:22.384Z,5.35
2023-03-24T09:06:53.327Z,6.00
2023-03-24T09:09:22.668Z,5.50
2023-03-24T09:11:51.865Z,5.65
2023-03-24T09:14:27.695Z,5.53
2023-03-24T09:16:58.997Z,4.75
2023-03-24T09:19:33.860Z,5.15
2023-03-24T09:22:03.027Z,4.80
2023-03-24T09:24:32.270Z,5.20
2023-03-24T09:27:01.526Z,5.30
2023-03-24T09:29:37.170Z,4.80
2023-03-24T09:34:43.602Z,4.72
2023-03-24T09:37:12.876Z,4.93
2023-03-24T09:39:42.224Z,5.35
2023-03-24T09:42:22.113Z,4.85
2023-03-24T09:44:56.803Z,4.90
2023-03-24T09:47:39.574Z,5.18
2023-03-24T09:50:27.469Z,4.05
2023-03-24T09:53:00.211Z,4.78
2023-03-24T09:55:31.231Z,4.85
2023-03-24T09:58:05.077Z,4.93
2023-03-24T10:03:22.408Z,4.15
2023-03-24T10:06:03.684Z,4.22
2023-03-24T10:08:37.624Z,3.90
2023-03-24T10:11:20.169Z,4.00
2023-03-24T10:14:07.589Z,3.88
2023-03-24T10:16:44.352Z,3.60
2023-03-24T10:19:30.591Z,3.90
2023-03-24T10:22:06.257Z,3.55
2023-03-24T10:24:44.488Z,3.95
2023-03-24T10:27:22.825Z,3.78
2023-03-24T10:29:56.604Z,4.25
2023-03-24T10:32:30.724Z,3.38
2023-03-24T10:35:09.295Z,3.40
2023-03-24T10:37:44.514Z,3.60
2023-03-24T10:40:20.277Z,3.67
2023-03-24T10:43:07.431Z,3.35
2023-03-24T10:45:47.823Z,3.65
2023-03-24T10:48:36.415Z,3.05
2023-03-24T10:51:09.382Z,3.30
2023-03-24T10:53:51.806Z,3.38
2023-03-24T10:56:39.147Z,3.28
2023-03-24T10:59:20.352Z,3.92
2023-03-24T11:01:52.058Z,3.10
2023-03-24T11:04:22.782Z,4.18
2023-03-24T11:07:13.068Z,3.80
2023-03-24T11:09:44.499Z,3.72
2023-03-24T11:12:25.329Z,3.53
2023-03-24T11:15:19.671Z,3.67
2023-03-24T11:17:58.124Z,3.50
2023-03-24T11:20:32.342Z,3.80
2023-03-24T11:23:06.287Z,2.85
2023-03-24T11:25:38.720Z,3.50
2023-03-24T11:28:11.037Z,3.97
2023-03-24T11:30:53.060Z,3.60
2023-03-24T11:33:35.939Z,3.75
2023-03-24T11:36:14.634Z,3.33
2023-03-24T11:38:48.250Z,3.50
2023-03-24T11:41:23.730Z,3.17
2023-03-24T11:43:52.980Z,3.50
2023-03-24T11:46:23.108Z,3.15
2023-03-24T11:48:55.320Z,3.90
2023-03-24T11:51:30.486Z,3.10
2023-03-24T11:56:47.122Z,3.60
2023-03-24T11:59:23.544Z,3.33
2023-03-24T12:02:00.181Z,3.40
2023-03-24T12:07:56.126Z,3.80
2023-03-24T12:10:38.902Z,3.45
2023-03-24T12:13:22.008Z,3.40
2023-03-24T12:16:02.517Z,3.65
2023-03-24T12:18:57.533Z,3.15
2023-03-24T12:21:47.205Z,3.80
2023-03-24T12:24:29.315Z,3.30
2023-03-24T12:27:02.314Z,3.55
2023-03-24T12:29:47.289Z,3.40
2023-03-24T12:32:38.578Z,3.63
2023-03-24T12:35:53.108Z,2.97
2023-03-24T12:38:32.211Z,3.60
2023-03-24T12:41:15.662Z,3.80
2023-03-24T12:43:56.779Z,3.75
2023-03-24T12:53:08.722Z,3.47
2023-03-24T12:55:45.559Z,2.85
2023-03-24T12:58:25.130Z,3.28
2023-03-24T13:01:05.037Z,3.00
2023-03-24T13:03:41.058Z,3.08
2023-03-24T13:06:18.464Z,2.40
2023-03-24T13:09:08.597Z,2.85
2023-03-24T13:11:50.275Z,2.40
2023-03-24T13:14:30.928Z,2.67
2023-03-24T13:17:12.418Z,2.90
2023-03-24T13:19:43.548Z,2.90
2023-03-24T13:22:18.740Z,2.72
2023-03-24T13:24:50.857Z,2.70
2023-03-24T13:27:25.632Z,2.28
2023-03-24T13:30:13.833Z,2.10
2023-03-24T13:32:46.905Z,1.67
2023-03-24T13:35:23.852Z,2.58
2023-03-24T13:37:57.058Z,2.53
2023-03-24T13:40:32.280Z,2.67
2023-03-24T13:43:09.031Z,1.85
2023-03-24T13:45:51.231Z,2.42
2023-03-24T13:48:37.717Z,2.47
2023-03-24T13:51:18.131Z,2.63
2023-03-24T13:53:53.323Z,2.35
2023-03-24T13:56:34.404Z,2.22
2023-03-24T13:59:29.193Z,2.63
2023-03-24T14:05:08.726Z,2.70
2023-03-24T14:07:48.134Z,2.10
2023-03-24T14:10:40.007Z,2.08
2023-03-24T14:13:37.692Z,2.55
2023-03-24T14:16:30.264Z,2.40
2023-03-24T14:19:17.273Z,2.50
2023-03-24T14:21:47.319Z,2.70
2023-03-24T14:24:25.623Z,2.75
2023-03-24T14:27:22.397Z,3.03
2023-03-24T14:29:54.184Z,2.90
2023-03-24T14:35:04.279Z,2.75
2023-03-24T14:37:39.380Z,3.20
2023-03-24T14:40:29.547Z,2.72
2023-03-24T14:43:06.806Z,2.47
2023-03-24T14:46:03.407Z,3.03
2023-03-24T14:48:40.381Z,3.25
2023-03-24T14:51:25.383Z,2.70
2023-03-24T14:54:06.955Z,2.30
2023-03-24T14:56:44.280Z,1.92
2023-03-24T14:59:24.529Z,2.20
2023-03-24T15:02:04.882Z,2.10
2023-03-24T15:04:38.976Z,1.48
2023-03-24T15:07:08.362Z,1.80
2023-03-24T15:09:39.552Z,1.80
2023-03-24T15:12:08.880Z,1.80
2023-03-24T15:17:27.112Z,1.95
2023-03-24T15:19:57.558Z,1.30
2023-03-24T15:22:26.922Z,1.75
2023-03-24T15:25:00.316Z,1.65
2023-03-24T15:27:33.348Z,1.45
2023-03-24T15:30:02.981Z,1.65
2023-03-24T15:32:38.650Z,1.92
2023-03-24T15:35:19.562Z,1.23
2023-03-24T15:37:53.628Z,1.58
2023-03-24T15:40:41.360Z,1.50
2023-03-24T15:43:21.226Z,1.30
2023-03-24T15:46:04.767Z,1.27
2023-03-24T15:48:46.081Z,0.95
2023-03-24T15:51:15.730Z,1.40
2023-03-24T15:53:48.851Z,1.60
2023-03-24T15:56:22.458Z,1.38
2023-03-24T15:58:55.101Z,1.10
2023-03-24T16:01:35.608Z,1.48
2023-03-24T16:04:09.886Z,2.30
2023-03-24T16:09:21.343Z,1.73
2023-03-24T16:11:51.319Z,1.50
2023-03-24T16:14:29.679Z,1.50
2023-03-24T16:17:01.905Z,1.60
2023-03-24T16:19:38.298Z,1.75
2023-03-24T16:22:21.983Z,1.70
2023-03-24T16:24:51.430Z,1.80
2023-03-24T16:27:20.836Z,1.70
2023-03-24T16:32:27.822Z,3.08
2023-03-24T16:35:04.121Z,1.88
2023-03-24T16:37:38.923Z,1.63
2023-03-24T16:40:21.160Z,1.40
2023-03-24T16:42:50.622Z,1.50
2023-03-24T16:45:19.794Z,1.48
2023-03-24T16:47:54.296Z,1.75
2023-03-24T16:50:30.787Z,1.38
2023-03-24T16:53:00.402Z,1.70
2023-03-24T16:55:29.692Z,2.03
2023-03-24T16:58:00.318Z,1.90
2023-03-24T17:00:37.074Z,2.03
2023-03-24T17:03:07.735Z,1.90
2023-03-24T17:05:48.655Z,1.83
2023-03-24T17:08:20.516Z,2.13
2023-03-24T17:11:01.279Z,2.08
2023-03-24T17:13:30.631Z,1.70
2023-03-24T17:15:59.882Z,1.77
2023-03-24T17:18:29.294Z,1.60
2023-03-24T17:21:04.964Z,1.30
2023-03-24T17:23:34.469Z,1.67
2023-03-24T17:26:03.870Z,1.48
2023-03-24T17:28:33.050Z,1.25
2023-03-24T17:31:07.427Z,1.38
2023-03-24T17:33:42.139Z,1.30
2023-03-24T17:36:17.607Z,1.50
2023-03-24T17:38:47.657Z,1.35
2023-03-24T17:41:16.924Z,1.67
2023-03-24T17:43:48.119Z,1.50
2023-03-24T17:46:17.543Z,1.20
2023-03-24T17:48:49.779Z,1.10
2023-03-24T17:51:21.229Z,1.30
2023-03-24T17:53:50.545Z,1.10
2023-03-24T17:56:19.840Z,1.60
2023-03-24T17:59:01.901Z,1.27
2023-03-24T18:01:34.860Z,1.52
2023-03-24T18:04:04.361Z,1.50
2023-03-24T18:06:35.581Z,1.70
2023-03-24T18:09:11.362Z,1.70
2023-03-24T18:11:41.107Z,1.80
2023-03-24T18:14:10.863Z,1.88
2023-03-24T18:16:50.504Z,2.20
2023-03-24T18:19:22.783Z,2.50
2023-03-24T18:21:54.011Z,2.17
2023-03-24T18:24:25.035Z,2.10
2023-03-24T18:26:59.400Z,2.55
2023-03-24T18:29:28.855Z,2.22
2023-03-24T18:31:58.340Z,2.10
2023-03-24T18:34:27.730Z,2.50
2023-03-24T18:36:59.221Z,2.50
2023-03-24T18:39:28.762Z,2.40
2023-03-24T18:41:57.999Z,2.70
2023-03-24T18:44:28.187Z,2.60
2023-03-24T18:46:57.548Z,2.25
2023-03-24T18:49:26.956Z,2.67
2023-03-24T18:52:06.696Z,2.78
2023-03-24T18:54:40.809Z,3.33
2023-03-24T18:57:11.155Z,2.90
2023-03-24T18:59:45.673Z,2.70
2023-03-24T19:02:15.247Z,2.72
2023-03-24T19:04:45.947Z,2.70
2023-03-24T19:07:29.091Z,2.90
2023-03-24T19:09:59.573Z,2.97
2023-03-24T19:12:28.847Z,3.20
2023-03-24T19:15:04.592Z,3.30
2023-03-24T19:17:39.148Z,2.80
2023-03-24T19:20:09.991Z,2.90
2023-03-24T19:22:41.876Z,3.22
2023-03-24T19:27:57.930Z,3.25
2023-03-24T19:30:32.637Z,3.72
2023-03-24T19:33:02.441Z,4.07
2023-03-24T19:35:31.958Z,4.38
2023-03-24T19:38:08.499Z,5.40
2023-03-24T19:40:37.852Z,6.57
2023-03-24T19:43:07.185Z,5.68
2023-03-24T19:45:42.657Z,6.13
2023-03-24T19:48:12.439Z,5.60
2023-03-24T19:50:41.767Z,5.75
2023-03-24T19:53:13.325Z,5.80
2023-03-24T19:55:42.708Z,5.95
2023-03-24T19:58:12.015Z,6.50
2023-03-24T20:00:41.918Z,6.40
2023-03-24T20:03:11.417Z,6.22
2023-03-24T20:05:46.071Z,6.50
2023-03-24T20:08:18.762Z,5.75
2023-03-24T20:10:59.340Z,6.03
2023-03-24T20:13:28.633Z,6.63
2023-03-24T20:15:57.932Z,6.55
2023-03-24T20:18:27.479Z,6.43
2023-03-24T20:21:01.784Z,6.40
2023-03-24T20:23:38.103Z,5.97
2023-03-24T20:26:07.623Z,6.53
2023-03-24T20:28:42.915Z,6.78
2023-03-24T20:31:13.336Z,7.15
2023-03-24T20:33:42.703Z,6.35
2023-03-24T20:41:24.270Z,7.20
2023-03-24T20:43:53.701Z,8.45
2023-03-24T20:46:30.036Z,8.50
2023-03-24T20:48:59.322Z,9.88
2023-03-24T20:51:28.903Z,9.43
2023-03-24T20:54:07.556Z,10.02
2023-03-24T20:56:37.013Z,10.18
2023-03-24T20:59:13.489Z,9.50
2023-03-24T21:01:42.790Z,10.02
2023-03-24T21:04:12.646Z,9.52
2023-03-24T21:06:47.619Z,10.07
2023-03-24T21:09:21.925Z,9.77
2023-03-24T21:11:56.511Z,8.95
2023-03-24T21:14:26.944Z,8.73
2023-03-24T21:16:56.307Z,8.73
2023-03-24T21:19:25.674Z,8.75
2023-03-24T21:21:58.889Z,8.95
2023-03-24T21:24:30.148Z,9.02
2023-03-24T21:27:04.406Z,10.48
2023-03-24T21:29:33.667Z,9.77
2023-03-24T21:32:03.040Z,10.35
2023-03-24T21:34:32.212Z,9.10
2023-03-24T21:37:07.629Z,8.23
2023-03-24T21:39:38.875Z,6.47
2023-03-24T21:42:13.342Z,6.57
2023-03-24T21:44:53.778Z,5.45
2023-03-24T21:47:24.657Z,5.45
2023-03-24T21:49:58.623Z,5.53
2023-03-24T21:52:36.048Z,5.88
2023-03-24T21:55:08.250Z,6.07
2023-03-24T21:57:37.904Z,5.57
2023-03-24T22:00:14.078Z,5.78
2023-03-24T22:02:50.871Z,5.82
2023-03-24T22:10:34.442Z,6.80
2023-03-24T22:13:05.467Z,6.93
2023-03-24T22:15:37.817Z,6.57
2023-03-24T22:18:07.451Z,6.88
2023-03-24T22:20:37.588Z,7.85
2023-03-24T22:23:12.824Z,7.07
2023-03-24T22:25:44.100Z,6.85
2023-03-24T22:28:13.344Z,6.60
2023-03-24T22:30:43.113Z,7.47
2023-03-24T22:33:23.052Z,6.80
2023-03-24T22:35:56.470Z,6.82
2023-03-24T22:38:27.518Z,6.95
2023-03-24T22:41:00.946Z,6.88
2023-03-24T22:43:38.964Z,7.97
2023-03-24T22:46:11.790Z,8.63
2023-03-24T22:48:41.692Z,9.27
2023-03-24T22:51:18.769Z,10.25
2023-03-24T22:53:53.343Z,10.02
2023-03-24T22:56:25.448Z,11.27
2023-03-24T22:58:55.360Z,12.98
2023-03-24T23:01:30.145Z,15.48
2023-03-24T23:04:00.355Z,16.50
2023-03-24T23:06:29.673Z,17.45
2023-03-24T23:08:59.174Z,19.13
2023-03-24T23:11:30.660Z,16.77
2023-03-24T23:14:04.838Z,18.48
2023-03-24T23:16:43.114Z,17.35
2023-03-24T23:19:13.576Z,15.55
2023-03-24T23:21:42.808Z,14.65
2023-03-24T23:24:17.032Z,14.07
2023-03-24T23:26:50.661Z,12.43
2023-03-24T23:29:30.032Z,10.70
2023-03-24T23:31:59.346Z,9.75
2023-03-24T23:34:28.939Z,9.45
2023-03-24T23:36:58.444Z,8.10
2023-03-24T23:39:27.937Z,8.75
2023-03-24T23:41:59.289Z,8.35
2023-03-24T23:44:28.511Z,7.97
2023-03-24T23:46:58.006Z,8.20
2023-03-24T23:49:27.660Z,7.47
2023-03-24T23:52:00.901Z,8.18
2023-03-24T23:54:31.926Z,7.53
2023-03-24T23:57:04.338Z,7.60
2023-03-24T23:59:46.289Z,7.55
